createdAt,value
2017-10-27T00:01:20.084Z,99.90
2017-10-27T00:03:48.264Z,99.90
2017-10-27T00:06:16.463Z,99.90
2017-10-27T00:08:43.894Z,99.90
2017-10-27T00:11:12.080Z,99.90
2017-10-27T00:13:39.492Z,99.90
2017-10-27T00:16:07.835Z,99.90
2017-10-27T00:18:35.288Z,99.90
2017-10-27T00:21:02.710Z,99.90
2017-10-27T00:23:30.887Z,99.90
2017-10-27T00:25:59.071Z,99.90
2017-10-27T00:28:26.482Z,99.90
2017-10-27T00:30:53.898Z,99.90
2017-10-27T00:33:21.327Z,99.90
2017-10-27T00:35:49.567Z,99.90
2017-10-27T00:38:16.987Z,99.90
2017-10-27T00:40:44.403Z,99.90
2017-10-27T00:43:12.595Z,99.90
2017-10-27T00:45:40.048Z,99.90
2017-10-27T00:48:09.158Z,99.90
2017-10-27T00:50:36.680Z,99.90
2017-10-27T00:53:04.094Z,99.90
2017-10-27T00:55:31.513Z,99.90
2017-10-27T00:57:59.694Z,99.90
2017-10-27T01:00:27.871Z,99.90
2017-10-27T01:02:55.315Z,99.90
2017-10-27T01:05:23.528Z,99.90
2017-10-27T01:07:50.951Z,99.90
2017-10-27T01:10:19.130Z,99.90
2017-10-27T01:12:46.610Z,99.90
2017-10-27T01:15:14.034Z,99.90
2017-10-27T01:17:42.220Z,99.90
2017-10-27T01:20:09.631Z,99.90
2017-10-27T01:22:37.050Z,99.90
2017-10-27T01:25:04.467Z,99.90
2017-10-27T01:27:33.683Z,99.90
2017-10-27T01:30:02.683Z,99.90
2017-10-27T01:32:30.107Z,99.90
2017-10-27T01:34:57.550Z,99.90
2017-10-27T01:37:24.970Z,99.90
2017-10-27T01:39:52.390Z,99.90
2017-10-27T01:42:19.826Z,99.90
2017-10-27T01:44:48.079Z,99.90
2017-10-27T01:47:15.508Z,99.90
2017-10-27T01:49:42.958Z,99.90
2017-10-27T01:52:10.403Z,99.90
2017-10-27T01:54:37.818Z,99.90
2017-10-27T01:57:05.224Z,99.90
2017-10-27T01:59:32.647Z,99.90
2017-10-27T02:02:00.838Z,99.90
2017-10-27T02:04:28.258Z,99.90
2017-10-27T02:06:55.670Z,99.90
2017-10-27T02:09:23.104Z,99.90
2017-10-27T02:11:51.276Z,99.90
2017-10-27T02:14:19.477Z,99.90
2017-10-27T02:16:46.877Z,99.90
2017-10-27T02:19:15.078Z,99.90
2017-10-27T02:21:42.519Z,99.90
2017-10-27T02:24:11.215Z,99.90
2017-10-27T02:29:22.353Z,99.90
2017-10-27T02:31:49.779Z,99.90
2017-10-27T02:34:17.197Z,99.90
2017-10-27T02:36:45.377Z,99.90
2017-10-27T02:39:13.581Z,99.90
2017-10-27T02:41:41.764Z,99.90
2017-10-27T02:44:09.180Z,99.90
2017-10-27T02:46:36.591Z,99.90
2017-10-27T02:49:04.018Z,99.90
2017-10-27T02:51:31.599Z,99.90
2017-10-27T02:53:59.033Z,99.90
2017-10-27T02:56:27.216Z,99.90
2017-10-27T02:58:54.644Z,99.90
2017-10-27T03:01:22.052Z,99.90
2017-10-27T03:03:49.471Z,99.90
2017-10-27T03:06:16.924Z,99.90
2017-10-27T03:08:45.094Z,99.90
2017-10-27T03:11:13.274Z,99.90
2017-10-27T03:13:42.254Z,99.90
2017-10-27T03:16:11.371Z,99.90
2017-10-27T03:18:38.790Z,99.90
2017-10-27T03:21:06.207Z,99.90
2017-10-27T03:23:33.651Z,99.90
2017-10-27T03:26:01.055Z,99.90
2017-10-27T03:28:28.474Z,99.90
2017-10-27T03:30:56.288Z,99.90
2017-10-27T03:33:23.699Z,99.90
2017-10-27T03:35:51.125Z,99.90
2017-10-27T03:38:18.555Z,99.90
2017-10-27T03:40:46.769Z,99.90
2017-10-27T03:43:14.186Z,99.90
2017-10-27T03:45:42.876Z,99.90
2017-10-27T03:48:12.009Z,99.90
2017-10-27T03:50:39.427Z,99.90
2017-10-27T03:53:07.602Z,99.90
2017-10-27T03:55:35.784Z,99.90
2017-10-27T03:58:03.957Z,99.90
2017-10-27T04:00:31.379Z,99.90
2017-10-27T04:02:58.810Z,99.90
2017-10-27T04:05:26.221Z,99.90
2017-10-27T04:07:53.634Z,99.90
2017-10-27T04:10:21.057Z,99.90
2017-10-27T04:12:48.479Z,99.90
2017-10-27T04:15:16.668Z,99.90
2017-10-27T04:17:44.146Z,99.90
2017-10-27T04:20:11.558Z,99.90
2017-10-27T04:22:38.983Z,99.90
2017-10-27T04:25:06.407Z,99.90
2017-10-27T04:27:33.841Z,99.90
2017-10-27T04:30:02.013Z,99.90
2017-10-27T04:32:30.194Z,99.90
2017-10-27T04:34:57.614Z,99.90
2017-10-27T04:37:25.060Z,99.90
2017-10-27T04:39:52.476Z,99.90
2017-10-27T04:42:19.886Z,99.90
2017-10-27T04:44:48.091Z,99.90
2017-10-27T04:47:16.262Z,99.90
2017-10-27T04:49:43.679Z,99.90
2017-10-27T04:52:11.106Z,99.90
2017-10-27T04:54:38.570Z,99.90
2017-10-27T04:57:05.991Z,99.90
2017-10-27T04:59:33.419Z,99.90
2017-10-27T05:02:01.584Z,99.90
2017-10-27T05:04:29.007Z,99.90
2017-10-27T05:06:56.418Z,99.90
2017-10-27T05:09:24.613Z,99.90
2017-10-27T05:11:52.023Z,99.90
2017-10-27T05:14:19.443Z,99.90
2017-10-27T05:16:52.479Z,99.90
2017-10-27T05:19:26.464Z,99.90
2017-10-27T05:21:59.688Z,99.90
2017-10-27T05:24:27.876Z,99.90
2017-10-27T05:26:55.291Z,99.90
2017-10-27T05:29:22.758Z,99.90
2017-10-27T05:31:50.190Z,99.90
2017-10-27T05:34:17.625Z,99.90
2017-10-27T05:36:45.039Z,99.90
2017-10-27T05:39:13.359Z,99.90
2017-10-27T05:41:40.766Z,99.90
2017-10-27T05:44:08.950Z,99.90
2017-10-27T05:46:37.127Z,99.90
2017-10-27T05:49:04.543Z,99.90
2017-10-27T05:51:31.958Z,99.90
2017-10-27T05:53:59.383Z,99.90
2017-10-27T05:56:27.559Z,99.90
2017-10-27T05:58:55.750Z,99.90
2017-10-27T06:01:23.935Z,99.90
2017-10-27T06:03:51.381Z,99.90
2017-10-27T06:06:18.795Z,99.90
2017-10-27T06:08:46.215Z,99.90
2017-10-27T06:11:13.648Z,99.90
2017-10-27T06:13:41.066Z,99.90
2017-10-27T06:16:08.495Z,99.90
2017-10-27T06:18:35.906Z,99.90
2017-10-27T06:21:04.082Z,99.90
2017-10-27T06:23:31.502Z,99.90
2017-10-27T06:25:59.032Z,99.90
2017-10-27T06:28:26.441Z,99.90
2017-10-27T06:30:54.654Z,99.90
2017-10-27T06:33:22.051Z,99.90
2017-10-27T06:35:49.475Z,99.90
2017-10-27T06:38:16.898Z,99.90
2017-10-27T06:40:46.719Z,99.90
2017-10-27T06:43:14.152Z,99.90
2017-10-27T06:45:42.330Z,99.90
2017-10-27T06:48:10.522Z,99.90
2017-10-27T06:50:37.942Z,99.90
2017-10-27T06:53:05.367Z,99.90
2017-10-27T06:55:32.784Z,99.90
2017-10-27T06:58:00.218Z,99.90
2017-10-27T07:00:28.400Z,99.90
2017-10-27T07:02:56.586Z,99.90
2017-10-27T07:05:24.032Z,99.90
2017-10-27T07:07:52.211Z,99.90
2017-10-27T07:10:20.379Z,99.90
2017-10-27T07:12:49.394Z,99.90
2017-10-27T07:15:17.109Z,99.90
2017-10-27T07:17:44.532Z,99.90
2017-10-27T07:20:11.934Z,99.90
2017-10-27T07:22:40.135Z,99.90
2017-10-27T07:25:07.553Z,99.90
2017-10-27T07:27:34.966Z,99.90
2017-10-27T07:30:02.418Z,99.90
2017-10-27T07:32:29.839Z,99.90
2017-10-27T07:34:58.025Z,99.90
2017-10-27T07:37:25.454Z,99.90
2017-10-27T07:39:52.851Z,99.90
2017-10-27T07:42:20.270Z,99.90
2017-10-27T07:44:48.470Z,99.90
2017-10-27T07:47:17.583Z,99.90
2017-10-27T07:49:45.000Z,99.90
2017-10-27T07:52:13.185Z,99.90
2017-10-27T07:54:41.366Z,99.90
2017-10-27T07:57:08.843Z,99.90
2017-10-27T07:59:36.265Z,99.90
2017-10-27T08:02:04.456Z,99.90
2017-10-27T08:04:32.630Z,99.90
2017-10-27T08:07:00.046Z,99.90
2017-10-27T08:09:27.462Z,99.90
2017-10-27T08:11:54.878Z,99.90
2017-10-27T08:14:22.309Z,99.90
2017-10-27T08:16:49.720Z,99.90
2017-10-27T08:19:18.172Z,99.90
2017-10-27T08:21:47.270Z,99.90
2017-10-27T08:24:14.713Z,99.90
2017-10-27T08:26:42.126Z,99.90
2017-10-27T08:29:09.546Z,99.90
2017-10-27T08:31:36.984Z,99.90
2017-10-27T08:34:04.466Z,99.90
2017-10-27T08:36:31.914Z,99.90
2017-10-27T08:39:00.091Z,99.90
2017-10-27T08:41:27.511Z,99.90
2017-10-27T08:43:54.923Z,99.90
2017-10-27T08:46:22.340Z,99.90
2017-10-27T08:48:50.516Z,99.90
2017-10-27T08:51:18.699Z,99.90
2017-10-27T08:53:46.133Z,99.90
2017-10-27T08:56:13.554Z,99.90
2017-10-27T08:58:40.999Z,99.90
2017-10-27T09:01:08.427Z,99.90
2017-10-27T09:03:35.904Z,99.90
2017-10-27T09:06:03.352Z,99.90
2017-10-27T09:08:30.766Z,99.90
2017-10-27T09:10:58.251Z,99.90
2017-10-27T09:13:25.668Z,99.90
2017-10-27T09:15:53.084Z,99.90
2017-10-27T09:18:20.491Z,99.90
2017-10-27T09:20:49.212Z,99.90
2017-10-27T09:23:16.627Z,99.90
2017-10-27T09:25:44.039Z,99.90
2017-10-27T09:28:11.473Z,99.90
2017-10-27T09:30:38.947Z,99.90
2017-10-27T09:33:06.381Z,99.90
2017-10-27T09:35:34.562Z,99.90
2017-10-27T09:38:01.979Z,99.90
2017-10-27T09:40:30.164Z,99.90
2017-10-27T09:42:57.580Z,99.90
2017-10-27T09:45:25.010Z,99.90
2017-10-27T09:47:52.434Z,99.90
2017-10-27T09:50:20.622Z,99.90
2017-10-27T09:52:49.605Z,99.90
2017-10-27T09:55:18.730Z,99.90
2017-10-27T09:57:46.157Z,99.90
2017-10-27T10:00:13.572Z,99.90
2017-10-27T10:02:40.996Z,99.90
2017-10-27T10:05:08.442Z,99.90
2017-10-27T10:07:35.925Z,99.90
2017-10-27T10:10:03.323Z,99.90
2017-10-27T10:12:30.747Z,99.90
2017-10-27T10:14:58.164Z,99.90
2017-10-27T10:17:25.574Z,99.90
2017-10-27T10:19:53.039Z,99.90
2017-10-27T10:22:20.464Z,99.90
2017-10-27T10:24:47.874Z,99.90
2017-10-27T10:27:16.074Z,99.90
2017-10-27T10:29:43.492Z,99.90
2017-10-27T10:32:11.666Z,99.90
2017-10-27T10:34:39.859Z,99.90
2017-10-27T10:37:08.044Z,99.90
2017-10-27T10:39:35.454Z,99.90
2017-10-27T10:42:02.923Z,99.90
2017-10-27T10:44:30.346Z,99.90
2017-10-27T10:46:57.759Z,99.90
2017-10-27T10:49:25.198Z,99.90
2017-10-27T10:51:52.604Z,99.90
2017-10-27T10:54:20.027Z,99.90
2017-10-27T10:56:47.441Z,99.90
2017-10-27T10:59:14.854Z,99.90
2017-10-27T11:01:42.288Z,99.90
2017-10-27T11:04:10.462Z,99.90
2017-10-27T11:06:37.890Z,99.90
2017-10-27T11:09:05.299Z,99.90
2017-10-27T11:11:32.744Z,99.90
2017-10-27T11:14:00.159Z,99.90
2017-10-27T11:16:27.590Z,99.90
2017-10-27T11:18:55.010Z,99.90
2017-10-27T11:21:22.431Z,99.90
2017-10-27T11:23:51.034Z,99.90
2017-10-27T11:26:20.135Z,99.90
2017-10-27T11:28:47.555Z,99.90
2017-10-27T11:31:14.971Z,99.90
2017-10-27T11:33:42.390Z,99.90
2017-10-27T11:36:10.567Z,99.90
2017-10-27T11:38:38.800Z,99.90
2017-10-27T11:41:06.241Z,99.90
2017-10-27T11:43:33.689Z,99.90
2017-10-27T11:46:01.094Z,99.90
2017-10-27T11:48:28.503Z,99.90
2017-10-27T11:50:55.966Z,99.90
2017-10-27T11:53:23.491Z,99.90
2017-10-27T11:55:50.904Z,99.90
2017-10-27T11:58:18.320Z,99.90
2017-10-27T12:00:45.742Z,99.90
2017-10-27T12:03:13.157Z,99.90
2017-10-27T12:05:40.592Z,99.90
2017-10-27T12:08:08.006Z,99.90
2017-10-27T12:10:35.428Z,99.90
2017-10-27T12:13:02.823Z,99.90
2017-10-27T12:15:31.047Z,97.50
2017-10-27T12:17:58.466Z,97.40
2017-10-27T12:20:25.960Z,93.60
2017-10-27T12:22:53.370Z,91.10
2017-10-27T12:25:21.863Z,84.30
2017-10-27T12:27:49.270Z,84.20
2017-10-27T12:30:16.692Z,80.80
2017-10-27T12:32:44.099Z,77.80
2017-10-27T12:35:11.523Z,81.20
2017-10-27T12:37:38.942Z,78.60
2017-10-27T12:40:06.381Z,82.70
2017-10-27T12:42:34.550Z,94.10
2017-10-27T12:45:02.727Z,96.60
2017-10-27T12:47:30.921Z,98.00
2017-10-27T12:49:58.354Z,98.00
2017-10-27T12:52:26.592Z,97.80
2017-10-27T12:54:54.015Z,97.80
2017-10-27T12:57:22.363Z,94.60
2017-10-27T12:59:51.477Z,95.00
2017-10-27T13:02:19.686Z,95.20
2017-10-27T13:04:47.111Z,95.20
2017-10-27T13:07:14.548Z,93.40
2017-10-27T13:09:42.738Z,91.20
2017-10-27T13:12:10.919Z,90.90
2017-10-27T13:14:38.334Z,91.00
2017-10-27T13:17:05.764Z,93.00
2017-10-27T13:19:33.167Z,93.60
2017-10-27T13:22:01.354Z,90.00
2017-10-27T13:24:28.766Z,90.00
2017-10-27T13:26:56.171Z,91.70
2017-10-27T13:29:23.578Z,93.90
2017-10-27T13:31:51.016Z,94.00
2017-10-27T13:34:18.443Z,93.70
2017-10-27T13:36:45.905Z,93.20
2017-10-27T13:39:13.330Z,93.30
2017-10-27T13:41:41.530Z,94.10
2017-10-27T13:44:08.956Z,94.10
2017-10-27T13:46:37.142Z,95.40
2017-10-27T13:49:05.310Z,94.60
2017-10-27T13:51:32.744Z,94.60
2017-10-27T13:54:00.147Z,95.20
2017-10-27T13:56:27.559Z,94.80
2017-10-27T13:58:54.987Z,93.40
2017-10-27T14:01:22.547Z,92.40
2017-10-27T14:03:49.972Z,93.00
2017-10-27T14:06:17.383Z,93.50
2017-10-27T14:08:44.804Z,94.90
2017-10-27T14:11:12.239Z,95.50
2017-10-27T14:13:39.643Z,96.10
2017-10-27T14:16:07.051Z,97.30
2017-10-27T14:18:34.467Z,97.20
2017-10-27T14:21:02.647Z,94.00
2017-10-27T14:23:30.826Z,93.00
2017-10-27T14:25:59.012Z,93.00
2017-10-27T14:28:26.439Z,93.00
2017-10-27T14:30:53.859Z,91.80
2017-10-27T14:33:21.279Z,91.10
2017-10-27T14:35:48.726Z,89.80
2017-10-27T14:38:16.161Z,89.20
2017-10-27T14:40:43.567Z,87.10
2017-10-27T14:43:10.983Z,89.80
2017-10-27T14:45:39.196Z,92.70
2017-10-27T14:48:06.709Z,92.60
2017-10-27T14:50:34.108Z,93.80
2017-10-27T14:53:01.522Z,95.00
2017-10-27T14:55:29.841Z,97.00
2017-10-27T14:57:57.252Z,97.00
2017-10-27T15:00:25.434Z,99.10
2017-10-27T15:02:54.364Z,99.70
2017-10-27T15:05:21.787Z,99.60
2017-10-27T15:07:49.972Z,99.90
2017-10-27T15:10:17.417Z,99.90
2017-10-27T15:12:45.599Z,99.90
2017-10-27T15:15:13.019Z,99.90
2017-10-27T15:17:40.436Z,99.90
2017-10-27T15:20:07.846Z,99.90
2017-10-27T15:22:36.027Z,99.90
2017-10-27T15:25:04.213Z,99.90
2017-10-27T15:27:31.639Z,99.90
2017-10-27T15:30:00.559Z,99.90
2017-10-27T15:32:28.743Z,99.90
2017-10-27T15:34:56.215Z,99.90
2017-10-27T15:37:24.763Z,99.90
2017-10-27T15:39:52.960Z,99.90
2017-10-27T15:42:20.389Z,99.90
2017-10-27T15:44:48.563Z,99.90
2017-10-27T15:47:16.757Z,99.90
2017-10-27T15:49:44.187Z,99.90
2017-10-27T15:52:12.372Z,99.90
2017-10-27T15:54:40.551Z,99.90
2017-10-27T15:57:07.968Z,99.90
2017-10-27T15:59:35.389Z,99.90
2017-10-27T16:02:02.803Z,99.90
2017-10-27T16:04:30.988Z,99.90
2017-10-27T16:06:59.190Z,99.90
2017-10-27T16:09:26.591Z,99.90
2017-10-27T16:11:55.300Z,99.90
2017-10-27T16:14:24.403Z,99.90
2017-10-27T16:16:51.835Z,99.90
2017-10-27T16:19:19.242Z,99.90
2017-10-27T16:21:46.661Z,99.90
2017-10-27T16:24:14.849Z,99.90
2017-10-27T16:26:42.323Z,99.90
2017-10-27T16:29:09.747Z,99.90
2017-10-27T16:31:37.927Z,99.90
2017-10-27T16:34:05.367Z,99.90
2017-10-27T16:36:32.771Z,99.90
2017-10-27T16:39:00.196Z,99.90
2017-10-27T16:41:28.403Z,99.90
2017-10-27T16:43:55.827Z,99.90
2017-10-27T16:46:24.943Z,99.90
2017-10-27T16:48:52.379Z,99.90
2017-10-27T16:51:19.796Z,99.90
2017-10-27T16:53:47.219Z,99.90
2017-10-27T16:56:14.648Z,99.90
2017-10-27T16:58:42.090Z,99.90
2017-10-27T17:01:10.294Z,99.90
2017-10-27T17:03:37.709Z,99.90
2017-10-27T17:06:05.119Z,99.90
2017-10-27T17:08:32.531Z,99.90
2017-10-27T17:11:00.739Z,99.90
2017-10-27T17:13:28.136Z,99.90
2017-10-27T17:15:55.554Z,99.90
2017-10-27T17:18:22.987Z,99.90
2017-10-27T17:20:50.397Z,99.90
2017-10-27T17:23:17.827Z,99.90
2017-10-27T17:25:45.231Z,99.90
2017-10-27T17:28:13.436Z,99.90
2017-10-27T17:30:40.852Z,99.90
2017-10-27T17:33:08.273Z,99.90
2017-10-27T17:35:35.702Z,99.90
2017-10-27T17:38:03.102Z,99.90
2017-10-27T17:40:30.518Z,99.90
2017-10-27T17:42:57.930Z,99.90
2017-10-27T17:45:26.634Z,99.90
2017-10-27T17:47:55.983Z,99.90
2017-10-27T17:50:23.412Z,99.90
2017-10-27T17:52:50.883Z,99.90
2017-10-27T17:55:18.336Z,99.90
2017-10-27T17:57:45.804Z,99.90
2017-10-27T18:00:13.203Z,99.90
2017-10-27T18:02:41.383Z,99.90
2017-10-27T18:05:09.583Z,99.90
2017-10-27T18:07:37.753Z,99.90
2017-10-27T18:10:05.928Z,99.90
2017-10-27T18:12:33.348Z,99.90
2017-10-27T18:15:00.758Z,99.90
2017-10-27T18:17:28.175Z,99.90
2017-10-27T18:19:57.080Z,99.90
2017-10-27T18:22:24.560Z,99.90
2017-10-27T18:24:51.983Z,99.90
2017-10-27T18:27:20.169Z,99.90
2017-10-27T18:29:48.349Z,99.90
2017-10-27T18:32:15.756Z,99.90
2017-10-27T18:34:43.182Z,99.90
2017-10-27T18:37:10.594Z,99.90
2017-10-27T18:39:38.771Z,99.90
2017-10-27T18:42:06.966Z,99.90
2017-10-27T18:44:34.389Z,99.90
2017-10-27T18:47:02.567Z,99.90
2017-10-27T18:49:30.747Z,99.90
2017-10-27T18:51:58.167Z,99.90
2017-10-27T18:54:25.583Z,99.90
2017-10-27T18:56:53.024Z,99.90
2017-10-27T18:59:20.441Z,99.90
2017-10-27T19:01:47.861Z,99.90
2017-10-27T19:04:15.277Z,99.90
2017-10-27T19:06:43.453Z,99.90
2017-10-27T19:09:11.652Z,99.90
2017-10-27T19:11:39.074Z,99.90
2017-10-27T19:14:07.252Z,99.90
2017-10-27T19:16:35.464Z,99.90
2017-10-27T19:19:02.879Z,99.90
2017-10-27T19:21:31.100Z,99.90
2017-10-27T19:23:58.518Z,99.90
2017-10-27T19:26:27.623Z,99.90
2017-10-27T19:28:55.036Z,99.90
2017-10-27T19:31:22.439Z,99.90
2017-10-27T19:33:49.850Z,99.90
2017-10-27T19:36:17.284Z,99.90
2017-10-27T19:38:44.702Z,99.90
2017-10-27T19:41:12.124Z,99.90
2017-10-27T19:43:39.539Z,99.90
2017-10-27T19:46:06.989Z,99.90
2017-10-27T19:48:34.451Z,99.90
2017-10-27T19:51:01.868Z,99.90
2017-10-27T19:53:30.051Z,99.90
2017-10-27T19:55:58.326Z,99.90
2017-10-27T19:58:27.428Z,99.90
2017-10-27T20:00:55.638Z,99.90
2017-10-27T20:03:23.047Z,99.90
2017-10-27T20:05:51.234Z,99.90
2017-10-27T20:08:18.654Z,99.90
2017-10-27T20:10:46.071Z,99.90
2017-10-27T20:13:13.530Z,99.90
2017-10-27T20:15:40.951Z,99.90
2017-10-27T20:18:09.132Z,99.90
2017-10-27T20:20:36.547Z,99.90
2017-10-27T20:23:03.964Z,99.90
2017-10-27T20:25:31.400Z,99.90
2017-10-27T20:27:59.576Z,99.90
2017-10-27T20:30:27.913Z,99.90
2017-10-27T20:32:55.429Z,99.90
2017-10-27T20:35:22.826Z,99.90
2017-10-27T20:37:50.250Z,99.90
2017-10-27T20:40:17.683Z,99.90
2017-10-27T20:42:45.084Z,99.90
2017-10-27T20:45:12.500Z,99.90
2017-10-27T20:47:39.902Z,99.90
2017-10-27T20:50:07.443Z,99.90
2017-10-27T20:52:34.880Z,99.90
2017-10-27T20:55:04.504Z,99.90
2017-10-27T20:57:31.948Z,99.90
2017-10-27T20:59:59.350Z,99.90
2017-10-27T21:02:28.451Z,99.90
2017-10-27T21:04:56.912Z,99.90
2017-10-27T21:07:24.339Z,99.90
2017-10-27T21:09:51.744Z,99.90
2017-10-27T21:12:20.000Z,99.90
2017-10-27T21:14:47.409Z,99.90
2017-10-27T21:17:14.837Z,99.90
2017-10-27T21:19:42.247Z,99.90
2017-10-27T21:22:09.659Z,99.90
2017-10-27T21:24:37.075Z,99.90
2017-10-27T21:27:04.499Z,99.90
2017-10-27T21:29:31.923Z,99.90
2017-10-27T21:32:00.112Z,99.90
2017-10-27T21:34:28.458Z,99.90
2017-10-27T21:36:56.638Z,99.90
2017-10-27T21:39:24.060Z,99.90
2017-10-27T21:41:51.476Z,99.90
2017-10-27T21:44:18.905Z,99.90
2017-10-27T21:46:47.106Z,99.90
2017-10-27T21:49:14.496Z,99.90
2017-10-27T21:51:41.912Z,99.90
2017-10-27T21:54:09.323Z,99.90
2017-10-27T21:56:36.759Z,99.90
2017-10-27T21:59:04.200Z,99.90
2017-10-27T22:01:31.603Z,99.90
2017-10-27T22:03:59.026Z,99.90
2017-10-27T22:06:26.437Z,99.90
2017-10-27T22:08:53.850Z,99.90
2017-10-27T22:11:21.263Z,99.90
2017-10-27T22:13:48.671Z,99.90
2017-10-27T22:16:16.855Z,99.90
2017-10-27T22:18:45.047Z,99.90
2017-10-27T22:21:12.480Z,99.90
2017-10-27T22:23:40.655Z,99.90
2017-10-27T22:26:08.838Z,99.90
2017-10-27T22:28:37.015Z,99.90
2017-10-27T22:31:05.190Z,99.90
2017-10-27T22:33:32.611Z,99.90
2017-10-27T22:36:00.806Z,99.90
2017-10-27T22:38:29.902Z,99.90
2017-10-27T22:41:03.867Z,99.90
2017-10-27T22:43:31.301Z,99.90
2017-10-27T22:45:59.255Z,99.90
2017-10-27T22:48:26.670Z,99.90
2017-10-27T22:50:55.986Z,99.90
2017-10-27T22:53:23.369Z,99.90
2017-10-27T22:55:50.812Z,99.90
2017-10-27T22:58:18.975Z,99.90
2017-10-27T23:00:47.151Z,99.90
2017-10-27T23:03:15.341Z,99.90
2017-10-27T23:05:42.768Z,99.90
2017-10-27T23:08:15.895Z,99.90
2017-10-27T23:10:43.312Z,99.90
2017-10-27T23:13:10.757Z,99.90
2017-10-27T23:15:38.286Z,99.90
2017-10-27T23:18:05.696Z,99.90
2017-10-27T23:20:33.871Z,99.90
2017-10-27T23:23:02.060Z,99.90
2017-10-27T23:25:30.630Z,99.90
2017-10-27T23:27:59.739Z,99.90
2017-10-27T23:30:27.170Z,99.90
2017-10-27T23:32:55.356Z,99.90
2017-10-27T23:35:23.531Z,99.90
2017-10-27T23:37:50.971Z,99.90
2017-10-27T23:40:19.164Z,99.90
2017-10-27T23:42:47.342Z,99.90
2017-10-27T23:45:14.795Z,99.90
2017-10-27T23:47:42.209Z,99.90
2017-10-27T23:50:09.632Z,99.90
2017-10-27T23:52:37.037Z,99.90
2017-10-27T23:55:04.458Z,99.90
2017-10-27T23:57:31.899Z,99.90
